Time;durP1;ratioP1;P1;durP2;ratioP2;P2;SDS_P1;SDS_P2;PMS_P1;PMS_P2;Temp;Humidity;BMP_temperature;BMP_pressure;BME280_temperature;BME280_humidity;BME280_pressure;Samples;Min_cycle;Max_cycle;Signal;HPM_P1;HPM_P2
2021/05/16 00:00:34;;;;;;;2.97;2.70;;;27.40;50.10;;;;;;5137138;27;20461;-40
2021/05/16 00:03:05;;;;;;;2.43;2.30;;;27.40;49.70;;;;;;5128535;27;20469;-40
2021/05/16 00:05:37;;;;;;;2.70;2.50;;;27.30;48.80;;;;;;5138930;27;20863;-40
2021/05/16 00:08:08;;;;;;;4.03;2.30;;;27.00;49.00;;;;;;5140658;27;20482;-40
2021/05/16 00:10:39;;;;;;;3.07;2.87;;;27.00;49.90;;;;;;5135544;27;20445;-40
2021/05/16 00:13:10;;;;;;;3.47;2.10;;;26.90;49.40;;;;;;5135862;27;20455;-40
2021/05/16 00:15:41;;;;;;;2.70;2.07;;;26.70;49.60;;;;;;5143365;27;20460;-40
2021/05/16 00:18:11;;;;;;;4.40;2.60;;;26.70;50.20;;;;;;5140125;27;20445;-40
2021/05/16 00:20:42;;;;;;;3.20;2.73;;;26.70;50.30;;;;;;5142229;27;20445;-40
2021/05/16 00:23:12;;;;;;;2.90;2.57;;;26.70;51.00;;;;;;5135519;27;20482;-41
2021/05/16 00:25:44;;;;;;;3.83;2.73;;;26.50;51.80;;;;;;5133392;27;20484;-39
2021/05/16 00:28:15;;;;;;;3.37;3.07;;;26.50;53.30;;;;;;5129525;27;20513;-40
2021/05/16 00:30:46;;;;;;;2.83;2.60;;;26.40;53.60;;;;;;5140438;27;20452;-41
2021/05/16 00:33:16;;;;;;;3.20;2.93;;;26.30;54.10;;;;;;5138553;27;20488;-40
2021/05/16 00:35:47;;;;;;;3.43;3.17;;;26.30;54.20;;;;;;5143293;27;20459;-39
2021/05/16 00:38:17;;;;;;;3.43;3.13;;;26.10;54.90;;;;;;5142594;27;20472;-40
2021/05/16 00:40:49;;;;;;;5.37;3.10;;;26.00;54.90;;;;;;5135139;27;20514;-39
2021/05/16 00:43:19;;;;;;;4.60;3.50;;;26.00;54.70;;;;;;5138743;27;20793;-39
2021/05/16 00:45:50;;;;;;;2.70;2.47;;;25.90;55.30;;;;;;5142976;27;20472;-37
2021/05/16 00:48:21;;;;;;;3.00;2.70;;;25.90;55.40;;;;;;5142884;27;20510;-42
2021/05/16 00:50:51;;;;;;;3.30;3.00;;;25.80;54.60;;;;;;5143252;28;20468;-40
2021/05/16 00:53:23;;;;;;;7.97;3.70;;;25.70;55.70;;;;;;5129564;28;20978;-40
2021/05/16 00:55:55;;;;;;;4.70;3.40;;;25.60;55.10;;;;;;5132648;28;20567;-41
2021/05/16 00:58:26;;;;;;;4.90;3.07;;;25.50;55.90;;;;;;5140512;28;20837;-41
2021/05/16 01:00:58;;;;;;;17.80;16.30;;;25.40;56.30;;;;;;5128676;28;20441;-39
2021/05/16 01:03:30;;;;;;;18.60;17.17;;;25.50;57.20;;;;;;5142903;28;20484;-40
2021/05/16 01:06:01;;;;;;;320.77;287.93;;;25.40;56.30;;;;;;5139802;28;20536;-40
2021/05/16 01:08:31;;;;;;;55.17;51.07;;;25.40;55.70;;;;;;5125352;28;20762;-39
2021/05/16 01:11:03;;;;;;;76.53;71.53;;;25.30;55.80;;;;;;5135937;28;20477;-40
2021/05/16 01:13:35;;;;;;;41.13;38.43;;;25.30;56.40;;;;;;5141843;28;20476;-40
2021/05/16 01:16:06;;;;;;;27.57;25.43;;;25.30;56.10;;;;;;5142351;28;20445;-40
2021/05/16 01:18:36;;;;;;;22.40;21.10;;;25.20;56.00;;;;;;5137676;27;20909;-40
2021/05/16 01:21:08;;;;;;;21.93;20.33;;;25.20;56.90;;;;;;5141425;28;20518;-38
2021/05/16 01:23:46;;;;;;;16.10;15.00;;;25.10;57.00;;;;;;5136102;28;20481;-40
2021/05/16 01:26:17;;;;;;;66.37;61.37;;;25.10;56.10;;;;;;5125192;28;20446;-40
2021/05/16 01:28:47;;;;;;;21.03;19.13;;;25.00;56.20;;;;;;5127915;28;20901;-39
2021/05/16 01:31:18;;;;;;;15.97;14.40;;;24.90;57.00;;;;;;5142398;28;20486;-40
2021/05/16 01:33:48;;;;;;;10.57;8.00;;;24.80;56.80;;;;;;5135797;28;20478;-40
2021/05/16 01:36:20;;;;;;;7.13;6.57;;;24.80;57.20;;;;;;5142212;28;20484;-40
2021/05/16 01:38:51;;;;;;;36.37;33.43;;;24.80;57.40;;;;;;5142715;28;20457;-40
2021/05/16 01:41:22;;;;;;;12.73;11.63;;;24.80;58.00;;;;;;5139957;28;20528;-40
2021/05/16 01:43:53;;;;;;;9.10;8.40;;;24.80;57.90;;;;;;5140510;28;20537;-41
2021/05/16 01:46:25;;;;;;;8.67;7.93;;;24.80;58.90;;;;;;5137950;28;20476;-40
2021/05/16 01:48:56;;;;;;;6.37;5.87;;;24.70;58.40;;;;;;5139011;27;20445;-40
2021/05/16 01:51:29;;;;;;;11.20;10.20;;;24.60;58.70;;;;;;5146680;27;20441;-40
2021/05/16 01:54:01;;;;;;;13.37;11.87;;;24.60;58.40;;;;;;5144380;27;20489;-40
2021/05/16 01:56:32;;;;;;;9.57;6.93;;;24.50;58.40;;;;;;5141392;27;20452;-40
2021/05/16 01:59:04;;;;;;;9.30;6.20;;;24.40;58.70;;;;;;5144274;27;20464;-41
2021/05/16 02:01:35;;;;;;;42.00;38.63;;;24.40;59.10;;;;;;5146278;27;20440;-39
2021/05/16 02:04:08;;;;;;;7.30;6.80;;;24.30;58.80;;;;;;5144210;27;20491;-40
2021/05/16 02:06:40;;;;;;;15.37;14.27;;;24.20;59.00;;;;;;5142068;27;20432;-41
2021/05/16 02:09:12;;;;;;;17.30;15.80;;;24.10;59.70;;;;;;5137160;27;20541;-41
2021/05/16 02:11:42;;;;;;;18.57;17.07;;;24.00;59.00;;;;;;5146226;27;20593;-40
2021/05/16 02:14:13;;;;;;;34.77;32.17;;;23.90;59.10;;;;;;5144032;27;20480;-40
2021/05/16 02:16:43;;;;;;;21.60;20.20;;;23.80;59.60;;;;;;5146660;27;20467;-40
2021/05/16 02:19:13;;;;;;;12.90;11.70;;;23.70;60.90;;;;;;5137874;27;20447;-40
2021/05/16 02:21:44;;;;;;;11.67;10.70;;;23.70;60.00;;;;;;5145187;27;20552;-40
2021/05/16 02:24:16;;;;;;;11.83;10.73;;;23.60;59.70;;;;;;5145710;27;20481;-40
2021/05/16 02:26:46;;;;;;;12.20;11.30;;;23.50;60.00;;;;;;5141291;27;20807;-40
2021/05/16 02:29:17;;;;;;;46.93;43.27;;;23.50;60.40;;;;;;5134322;27;20452;-40
2021/05/16 02:31:48;;;;;;;12.20;11.10;;;23.40;61.10;;;;;;5146096;27;20445;-40
2021/05/16 02:34:18;;;;;;;15.13;13.70;;;23.40;62.00;;;;;;5143651;27;20676;-39
2021/05/16 02:36:48;;;;;;;13.97;12.77;;;23.30;62.20;;;;;;5145849;27;20452;-39
2021/05/16 02:39:20;;;;;;;24.93;22.90;;;23.20;63.40;;;;;;5137544;27;20452;-38
2021/05/16 02:41:51;;;;;;;32.07;29.27;;;23.20;62.50;;;;;;5145117;27;20529;-39
2021/05/16 02:44:21;;;;;;;11.37;10.33;;;23.10;62.80;;;;;;5142622;27;20484;-39
2021/05/16 02:46:52;;;;;;;9.93;8.97;;;23.10;62.50;;;;;;5146037;27;20484;-40
2021/05/16 02:49:22;;;;;;;13.30;12.20;;;22.90;62.50;;;;;;5139078;27;20445;-41
2021/05/16 02:51:53;;;;;;;12.20;11.10;;;22.80;63.30;;;;;;5145302;27;20521;-39
2021/05/16 02:54:25;;;;;;;13.17;12.00;;;22.80;63.50;;;;;;5138541;27;20449;-38
2021/05/16 02:56:55;;;;;;;9.37;8.53;;;22.70;63.70;;;;;;5144792;27;20535;-39
2021/05/16 02:59:26;;;;;;;9.03;8.17;;;22.60;64.00;;;;;;5132097;27;20452;-40
2021/05/16 03:01:56;;;;;;;19.60;17.70;;;22.50;64.90;;;;;;5145251;27;20421;-40
2021/05/16 03:04:27;;;;;;;13.57;12.10;;;22.50;64.40;;;;;;5142881;27;20480;-41
2021/05/16 03:06:58;;;;;;;14.43;12.97;;;22.50;65.20;;;;;;5144972;27;20529;-40
2021/05/16 03:09:32;;;;;;;14.30;10.23;;;22.40;65.70;;;;;;5132853;27;20415;-38
2021/05/16 03:12:04;;;;;;;21.53;19.27;;;22.30;66.30;;;;;;5144589;27;20448;-40
2021/05/16 03:14:35;;;;;;;21.70;19.47;;;22.20;66.50;;;;;;5139986;27;20436;-40
2021/05/16 03:17:06;;;;;;;17.40;15.80;;;22.20;66.90;;;;;;5145557;27;20437;-39
2021/05/16 03:19:37;;;;;;;21.83;19.40;;;22.20;67.00;;;;;;5136520;27;20487;-37
2021/05/16 03:22:09;;;;;;;19.67;17.57;;;22.10;67.70;;;;;;5144638;27;20834;-40
2021/05/16 03:24:40;;;;;;;16.33;12.27;;;22.00;67.90;;;;;;5144034;27;20617;-40
2021/05/16 03:27:11;;;;;;;17.93;15.77;;;21.90;68.30;;;;;;5132729;27;20502;-39
2021/05/16 03:29:41;;;;;;;20.83;18.63;;;21.90;68.70;;;;;;5133412;27;20415;-40
2021/05/16 03:32:12;;;;;;;9.13;8.20;;;21.80;69.40;;;;;;5144819;27;20509;-40
2021/05/16 03:34:42;;;;;;;20.60;18.60;;;21.70;69.80;;;;;;5139769;27;20480;-40
2021/05/16 03:37:13;;;;;;;11.73;10.27;;;21.60;71.00;;;;;;5144577;27;20434;-40
2021/05/16 03:39:44;;;;;;;8.40;7.00;;;21.50;71.70;;;;;;5137408;27;20419;-39
2021/05/16 03:42:15;;;;;;;8.03;7.23;;;21.40;72.70;;;;;;5144708;27;20445;-37
2021/05/16 03:44:46;;;;;;;7.23;5.10;;;21.40;73.30;;;;;;5142239;27;20459;-39
2021/05/16 03:47:17;;;;;;;5.47;4.90;;;21.30;74.00;;;;;;5144492;27;20473;-39
2021/05/16 03:49:48;;;;;;;6.30;4.90;;;21.30;74.60;;;;;;5138640;27;20416;-40
2021/05/16 03:52:19;;;;;;;7.27;4.70;;;21.20;75.10;;;;;;5144644;27;20480;-39
2021/05/16 03:54:52;;;;;;;18.63;16.47;;;21.10;75.90;;;;;;5140737;27;20428;-39
2021/05/16 03:57:23;;;;;;;28.70;26.20;;;21.10;76.80;;;;;;5144848;27;20512;-39
2021/05/16 03:59:54;;;;;;;13.87;11.00;;;21.00;77.60;;;;;;5143323;27;20550;-39
2021/05/16 04:02:24;;;;;;;21.93;20.07;;;20.90;78.50;;;;;;5142528;27;20454;-38
2021/05/16 04:04:55;;;;;;;18.43;16.57;;;20.90;79.10;;;;;;5140537;27;20455;-41
2021/05/16 04:07:25;;;;;;;41.50;37.73;;;20.80;79.60;;;;;;5144143;27;20419;-39
2021/05/16 04:09:57;;;;;;;19.03;17.20;;;20.70;80.30;;;;;;5142498;27;20445;-38
2021/05/16 04:12:27;;;;;;;14.43;13.03;;;20.60;80.90;;;;;;5142607;27;20423;-38
2021/05/16 04:14:57;;;;;;;11.43;10.40;;;20.60;81.20;;;;;;5141113;27;20523;-38
2021/05/16 04:17:28;;;;;;;12.63;11.40;;;20.50;81.70;;;;;;5143267;27;20463;-40
2021/05/16 04:19:58;;;;;;;37.23;33.90;;;20.40;82.60;;;;;;5131103;27;20448;-39
2021/05/16 04:22:29;;;;;;;44.97;40.97;;;20.40;83.30;;;;;;5143690;27;20419;-38
2021/05/16 04:25:03;;;;;;;17.43;15.93;;;20.30;84.00;;;;;;5142314;27;20511;-38
2021/05/16 04:27:34;;;;;;;8.83;8.20;;;20.20;84.70;;;;;;5138271;27;20520;-39
2021/05/16 04:30:05;;;;;;;19.87;18.13;;;20.20;85.50;;;;;;5129237;27;20477;-39
2021/05/16 04:32:36;;;;;;;14.70;13.20;;;20.10;86.20;;;;;;5134972;27;20419;-37
2021/05/16 04:35:07;;;;;;;22.57;20.60;;;20.10;86.40;;;;;;5140161;27;20459;-38
2021/05/16 04:37:38;;;;;;;51.47;47.40;;;20.00;87.00;;;;;;5143609;27;20509;-39
2021/05/16 04:40:10;;;;;;;26.07;23.77;;;19.90;87.40;;;;;;5140426;27;20438;-37
2021/05/16 04:42:40;;;;;;;42.50;38.67;;;19.90;88.30;;;;;;5144246;27;20441;-39
2021/05/16 04:45:13;;;;;;;47.83;43.83;;;19.80;89.00;;;;;;5140910;27;20533;-39
2021/05/16 04:47:44;;;;;;;35.90;32.70;;;19.80;89.80;;;;;;5142320;27;20438;-40
2021/05/16 04:50:18;;;;;;;53.33;48.53;;;19.70;89.80;;;;;;5142024;27;20484;-40
2021/05/16 04:52:48;;;;;;;39.07;35.47;;;19.60;90.20;;;;;;5138666;28;20521;-38
2021/05/16 04:55:20;;;;;;;77.93;70.50;;;19.60;90.50;;;;;;5132400;28;20445;-37
2021/05/16 04:57:50;;;;;;;55.67;50.30;;;19.60;90.70;;;;;;5143341;28;20437;-37
2021/05/16 05:00:21;;;;;;;31.97;29.00;;;19.50;90.80;;;;;;5141540;28;20464;-39
2021/05/16 05:02:52;;;;;;;28.23;25.83;;;19.40;91.30;;;;;;5142888;28;20441;-38
2021/05/16 05:05:22;;;;;;;56.80;51.73;;;19.40;91.50;;;;;;5139281;28;20480;-39
2021/05/16 05:07:53;;;;;;;30.70;27.70;;;19.30;91.70;;;;;;5142479;28;20441;-40
2021/05/16 05:10:25;;;;;;;26.23;23.70;;;19.20;91.90;;;;;;5143470;28;20432;-40
2021/05/16 05:12:55;;;;;;;71.37;64.77;;;19.10;92.10;;;;;;5141022;28;20454;-38
2021/05/16 05:15:34;;;;;;;53.83;48.77;;;19.10;92.10;;;;;;5141106;28;20485;-39
2021/05/16 05:18:05;;;;;;;46.70;42.13;;;19.10;92.10;;;;;;5139885;28;20541;-37
2021/05/16 05:20:36;;;;;;;38.63;34.60;;;19.00;92.40;;;;;;5142715;28;20449;-39
2021/05/16 05:23:06;;;;;;;37.97;33.93;;;18.90;92.80;;;;;;5141150;27;20497;-39
2021/05/16 05:25:38;;;;;;;46.87;42.97;;;18.80;93.00;;;;;;5146021;27;20484;-38
2021/05/16 05:28:08;;;;;;;17.00;15.60;;;18.80;93.30;;;;;;5144687;27;20423;-40
2021/05/16 05:30:39;;;;;;;33.60;30.70;;;18.70;93.40;;;;;;5145080;27;20445;-41
2021/05/16 05:33:09;;;;;;;23.50;21.10;;;18.60;94.00;;;;;;5144234;27;21001;-41
2021/05/16 05:35:40;;;;;;;13.13;11.93;;;18.60;93.90;;;;;;5146325;27;20463;-39
2021/05/16 05:38:10;;;;;;;10.90;9.90;;;18.50;94.40;;;;;;5139208;27;20420;-37
2021/05/16 05:40:42;;;;;;;9.40;8.37;;;18.40;94.90;;;;;;5139675;27;20440;-36
2021/05/16 05:43:12;;;;;;;9.10;5.67;;;18.20;95.30;;;;;;5142686;27;20445;-40
2021/05/16 05:48:37;;;;;;;16.80;15.20;;;18.20;95.50;;;;;;5144298;27;20520;-35
2021/05/16 05:51:08;;;;;;;62.67;57.07;;;18.10;95.80;;;;;;5146238;27;20505;-39
2021/05/16 05:53:41;;;;;;;10.63;9.53;;;18.10;96.20;;;;;;5141222;27;20445;-36
2021/05/16 05:56:12;;;;;;;16.77;15.20;;;18.00;96.50;;;;;;5134545;27;20451;-38
2021/05/16 05:58:43;;;;;;;34.73;31.37;;;17.90;96.40;;;;;;5144627;27;20433;-39
2021/05/16 06:01:14;;;;;;;58.30;53.30;;;17.90;96.80;;;;;;5145779;27;20504;-38
2021/05/16 06:03:45;;;;;;;50.00;45.07;;;17.90;96.50;;;;;;5140385;27;20468;-37
2021/05/16 06:06:15;;;;;;;28.97;26.37;;;17.90;96.30;;;;;;5144938;27;20452;-37
2021/05/16 06:08:46;;;;;;;63.30;57.03;;;17.90;96.30;;;;;;5138107;27;20461;-40
2021/05/16 06:11:23;;;;;;;80.93;72.27;;;17.90;96.50;;;;;;5144471;27;20583;-41
2021/05/16 06:14:01;;;;;;;54.03;48.40;;;17.90;96.20;;;;;;5126839;27;20464;-40
2021/05/16 06:16:38;;;;;;;56.90;51.03;;;17.80;96.50;;;;;;5142102;27;20456;-40
2021/05/16 06:19:14;;;;;;;58.00;52.23;;;17.70;96.40;;;;;;5145215;27;20932;-39
2021/05/16 06:21:46;;;;;;;69.97;63.77;;;17.70;96.90;;;;;;5145632;27;20673;-40
2021/05/16 06:24:17;;;;;;;50.00;45.60;;;17.60;96.60;;;;;;5145933;27;20469;-39
2021/05/16 06:26:48;;;;;;;37.27;33.77;;;17.60;96.80;;;;;;5143691;27;20844;-40
2021/05/16 06:29:21;;;;;;;40.43;36.43;;;17.50;97.10;;;;;;5142849;27;20496;-40
2021/05/16 06:31:53;;;;;;;99.43;89.63;;;17.50;97.50;;;;;;5144658;27;20455;-41
2021/05/16 06:34:24;;;;;;;35.67;32.53;;;17.40;97.90;;;;;;5138362;27;20555;-38
2021/05/16 06:37:00;;;;;;;36.77;33.43;;;17.30;98.00;;;;;;5145368;27;20474;-37
2021/05/16 06:39:33;;;;;;;47.83;43.47;;;17.30;98.20;;;;;;5145489;27;20482;-39
2021/05/16 06:42:05;;;;;;;29.97;27.03;;;17.20;98.60;;;;;;5131723;27;20444;-38
2021/05/16 06:44:35;;;;;;;30.57;27.57;;;17.20;98.60;;;;;;5145166;27;21166;-35
2021/05/16 06:47:07;;;;;;;39.00;35.10;;;17.30;98.40;;;;;;5139091;27;20505;-38
2021/05/16 06:49:37;;;;;;;20.83;18.90;;;17.20;98.40;;;;;;5143665;27;20459;-39
2021/05/16 06:52:08;;;;;;;41.63;37.40;;;17.10;98.50;;;;;;5139669;27;20445;-41
2021/05/16 06:54:38;;;;;;;33.07;29.87;;;17.10;98.80;;;;;;5138489;27;20532;-37
2021/05/16 06:57:12;;;;;;;30.43;27.40;;;17.00;98.90;;;;;;5144562;27;20427;-40
2021/05/16 06:59:43;;;;;;;46.43;42.13;;;17.10;98.50;;;;;;5140862;27;20437;-37
2021/05/16 07:02:13;;;;;;;40.67;36.93;;;17.00;98.80;;;;;;5140752;27;21037;-39
2021/05/16 07:04:48;;;;;;;43.93;39.87;;;16.90;99.20;;;;;;5144050;27;20610;-39
2021/05/16 07:07:23;;;;;;;55.93;50.67;;;16.90;99.50;;;;;;5145291;27;20449;-38
2021/05/16 07:09:54;;;;;;;45.10;40.73;;;16.90;99.30;;;;;;5143835;27;20449;-39
2021/05/16 07:12:25;;;;;;;45.03;41.03;;;16.80;99.70;;;;;;5144155;27;20437;-37
2021/05/16 07:14:56;;;;;;;34.20;30.70;;;16.80;99.90;;;;;;5135217;27;20486;-38
2021/05/16 07:17:26;;;;;;;86.07;76.57;;;16.70;99.90;;;;;;5132456;27;20446;-39
2021/05/16 07:19:57;;;;;;;39.60;35.90;;;16.60;99.90;;;;;;5137502;27;20448;-39
2021/05/16 07:22:27;;;;;;;49.50;43.43;;;16.60;99.90;;;;;;5129658;27;20445;-40
2021/05/16 07:24:58;;;;;;;25.57;22.93;;;16.50;99.90;;;;;;5132483;27;20531;-36
2021/05/16 07:27:29;;;;;;;25.77;21.70;;;16.40;99.90;;;;;;5137932;27;20468;-37
2021/05/16 07:30:00;;;;;;;15.60;12.77;;;16.40;99.90;;;;;;5142058;27;20445;-39
2021/05/16 07:32:30;;;;;;;37.17;33.27;;;16.40;99.90;;;;;;5144991;27;20476;-40
2021/05/16 07:35:01;;;;;;;19.17;17.17;;;16.30;99.90;;;;;;5143616;27;21083;-37
2021/05/16 07:37:31;;;;;;;17.17;14.43;;;16.30;99.90;;;;;;5144658;27;20445;-38
2021/05/16 07:40:02;;;;;;;9.60;7.93;;;16.20;99.90;;;;;;5144007;27;20474;-39
2021/05/16 07:42:37;;;;;;;10.63;8.50;;;16.10;99.90;;;;;;5144577;27;20573;-36
2021/05/16 07:45:30;;;;;;;6.33;5.50;;;16.10;99.90;;;;;;5142690;27;20462;-39
2021/05/16 07:48:02;;;;;;;8.60;5.90;;;16.10;99.90;;;;;;5142069;27;20929;-38
2021/05/16 07:50:33;;;;;;;5.13;4.60;;;16.00;99.90;;;;;;5144187;27;20455;-35
2021/05/16 07:53:03;;;;;;;5.97;5.30;;;15.90;99.90;;;;;;5143706;27;20917;-37
2021/05/16 07:55:34;;;;;;;9.30;6.40;;;15.90;99.90;;;;;;5144718;27;20820;-36
2021/05/16 07:58:05;;;;;;;9.73;6.93;;;15.80;99.90;;;;;;5136052;27;20466;-37
2021/05/16 08:00:36;;;;;;;9.00;6.40;;;15.80;99.90;;;;;;5143389;27;20437;-38
2021/05/16 08:03:06;;;;;;;8.40;5.60;;;15.70;99.90;;;;;;5143395;27;20449;-37
2021/05/16 08:05:37;;;;;;;10.77;7.00;;;15.60;99.90;;;;;;5135327;27;20549;-36
2021/05/16 08:08:07;;;;;;;6.40;5.80;;;15.60;99.90;;;;;;5144038;27;20810;-36
2021/05/16 08:10:39;;;;;;;8.03;5.90;;;15.60;99.90;;;;;;5140945;27;20445;-37
2021/05/16 08:13:10;;;;;;;11.47;6.53;;;15.60;99.90;;;;;;5144577;27;20476;-36
2021/05/16 08:15:41;;;;;;;10.23;4.80;;;15.60;99.90;;;;;;5142953;27;20445;-36
2021/05/16 08:18:12;;;;;;;7.03;3.97;;;15.50;99.90;;;;;;5143125;27;20505;-35
2021/05/16 08:20:42;;;;;;;8.70;5.90;;;15.50;99.90;;;;;;5144342;27;20448;-37
2021/05/16 08:23:13;;;;;;;6.53;4.87;;;15.50;99.90;;;;;;5143370;27;20448;-36
2021/05/16 08:25:43;;;;;;;6.40;4.00;;;15.40;99.90;;;;;;5143197;27;20525;-36
2021/05/16 08:28:15;;;;;;;8.30;5.43;;;15.40;99.90;;;;;;5135080;27;20445;-37
2021/05/16 08:30:45;;;;;;;9.40;5.97;;;15.30;99.90;;;;;;5143087;27;20474;-37
2021/05/16 08:33:16;;;;;;;6.33;4.17;;;15.20;99.90;;;;;;5132241;27;20457;-37
2021/05/16 08:35:47;;;;;;;6.90;4.80;;;15.20;99.90;;;;;;5141225;27;20513;-38
2021/05/16 08:38:17;;;;;;;8.90;4.60;;;15.10;99.90;;;;;;5135294;27;20444;-36
2021/05/16 08:40:48;;;;;;;6.00;4.57;;;15.00;99.90;;;;;;5143442;27;20447;-37
2021/05/16 08:43:20;;;;;;;5.00;4.17;;;15.00;99.90;;;;;;5143710;27;20467;-38
2021/05/16 08:45:52;;;;;;;6.87;4.50;;;15.00;99.90;;;;;;5138958;27;20503;-37
2021/05/16 08:48:29;;;;;;;10.37;5.17;;;15.00;99.90;;;;;;5133394;27;20471;-37
2021/05/16 08:50:59;;;;;;;8.37;5.40;;;14.90;99.90;;;;;;5143900;27;20444;-35
2021/05/16 08:53:30;;;;;;;8.30;5.50;;;15.00;99.90;;;;;;5142243;27;20468;-36
2021/05/16 08:56:01;;;;;;;7.03;4.87;;;14.90;99.90;;;;;;5143737;28;20445;-36
2021/05/16 08:58:33;;;;;;;5.37;4.70;;;14.90;99.90;;;;;;5141183;27;20432;-36
2021/05/16 09:01:19;;;;;;;7.70;4.73;;;14.80;99.90;;;;;;5150434;27;20517;-38
2021/05/16 09:03:50;;;;;;;6.83;5.20;;;14.80;99.90;;;;;;5147184;27;20501;-36
2021/05/16 09:06:32;;;;;;;6.90;4.57;;;14.70;99.90;;;;;;5149580;27;20476;-37
2021/05/16 09:09:27;;;;;;;8.17;4.77;;;14.70;99.90;;;;;;5149141;27;20468;-37
2021/05/16 09:12:00;;;;;;;7.73;4.97;;;14.60;99.90;;;;;;5149805;27;20449;-35
2021/05/16 09:14:47;;;;;;;6.17;5.13;;;14.60;99.90;;;;;;5149046;27;20444;-36
2021/05/16 09:17:30;;;;;;;6.20;5.37;;;14.50;99.90;;;;;;5148224;27;20456;-36
2021/05/16 09:20:02;;;;;;;7.43;4.80;;;14.50;99.90;;;;;;5149303;27;20485;-38
2021/05/16 09:22:41;;;;;;;5.17;4.77;;;14.50;99.90;;;;;;5148025;27;20453;-36
2021/05/16 09:25:16;;;;;;;6.30;4.50;;;14.40;99.90;;;;;;5142659;27;20475;-38
2021/05/16 09:27:48;;;;;;;5.40;4.97;;;14.40;99.90;;;;;;5141391;27;20457;-33
2021/05/16 09:30:30;;;;;;;7.33;4.27;;;14.30;99.90;;;;;;5141369;27;21026;-36
2021/05/16 09:33:03;;;;;;;8.00;5.00;;;14.30;99.90;;;;;;5149765;27;20448;-35
2021/05/16 09:35:41;;;;;;;7.10;4.27;;;14.20;99.90;;;;;;5149001;27;20975;-36
2021/05/16 09:38:19;;;;;;;6.97;5.07;;;14.20;99.90;;;;;;5148862;27;20432;-35
2021/05/16 09:40:51;;;;;;;7.57;4.67;;;14.20;99.90;;;;;;5138839;27;20432;-38
2021/05/16 09:43:24;;;;;;;9.53;4.73;;;14.10;99.90;;;;;;5140727;27;20440;-37
2021/05/16 09:46:00;;;;;;;4.87;4.23;;;14.00;99.90;;;;;;5148585;27;20499;-38
2021/05/16 09:48:37;;;;;;;7.73;4.77;;;13.90;99.90;;;;;;5148647;27;20831;-37
2021/05/16 09:51:26;;;;;;;8.17;4.80;;;13.90;99.90;;;;;;5138003;27;20456;-34
2021/05/16 09:54:07;;;;;;;7.27;5.47;;;13.90;99.90;;;;;;5149265;27;20452;-35
2021/05/16 09:56:38;;;;;;;8.57;5.07;;;13.90;99.90;;;;;;5150265;27;20444;-35
2021/05/16 09:59:10;;;;;;;6.70;4.67;;;13.80;99.90;;;;;;5148241;27;20441;-37
2021/05/16 10:01:42;;;;;;;6.90;5.40;;;13.80;99.90;;;;;;5149538;27;20478;-35
2021/05/16 10:04:12;;;;;;;9.03;5.40;;;13.80;99.90;;;;;;5140558;27;20478;-37
2021/05/16 10:06:43;;;;;;;6.30;4.67;;;13.80;99.90;;;;;;5147500;27;20540;-37
2021/05/16 10:09:13;;;;;;;6.80;5.00;;;13.60;99.90;;;;;;5143238;27;20467;-35
2021/05/16 10:11:44;;;;;;;6.30;4.20;;;13.60;99.90;;;;;;5145742;27;20494;-37
2021/05/16 10:14:19;;;;;;;8.20;5.20;;;13.60;99.90;;;;;;5144814;27;20452;-36
2021/05/16 10:16:53;;;;;;;6.93;4.40;;;13.50;99.90;;;;;;5144353;27;20813;-34
2021/05/16 10:19:26;;;;;;;8.17;5.00;;;13.50;99.90;;;;;;5145007;27;20467;-37
2021/05/16 10:22:13;;;;;;;8.67;4.83;;;13.40;99.90;;;;;;5145799;27;20466;-35
2021/05/16 10:24:44;;;;;;;6.27;4.93;;;13.40;99.90;;;;;;5145588;27;20445;-37
2021/05/16 10:27:20;;;;;;;5.60;5.00;;;13.30;99.90;;;;;;5137268;27;20487;-36
2021/05/16 10:29:55;;;;;;;7.07;5.60;;;13.30;99.90;;;;;;5137526;27;20499;-37
2021/05/16 10:32:32;;;;;;;5.87;4.33;;;13.10;99.90;;;;;;5139819;27;20541;-38
2021/05/16 10:35:04;;;;;;;5.63;4.90;;;13.10;99.90;;;;;;5142333;27;20452;-36
2021/05/16 10:37:42;;;;;;;6.70;4.60;;;13.00;99.90;;;;;;5155357;27;20455;-36
2021/05/16 10:40:34;;;;;;;5.33;4.83;;;12.90;99.90;;;;;;5139541;27;20553;-38
2021/05/16 10:43:06;;;;;;;4.60;4.20;;;12.90;99.90;;;;;;5144916;27;20460;-35
2021/05/16 10:45:38;;;;;;;5.05;4.55;;;12.80;99.90;;;;;;5144666;27;20628;-38
2021/05/16 10:48:16;;;;;;;6.73;5.13;;;12.90;99.90;;;;;;5144220;27;20262;-37
2021/05/16 10:51:03;;;;;;;5.20;4.70;;;12.80;99.90;;;;;;5145156;27;20469;-35
2021/05/16 10:53:42;;;;;;;7.55;5.55;;;12.70;99.90;;;;;;5135844;27;20444;-36
2021/05/16 10:56:21;;;;;;;7.43;4.53;;;12.70;99.90;;;;;;5145615;27;20206;-38
2021/05/16 10:58:55;;;;;;;7.03;5.07;;;12.60;99.90;;;;;;5142510;27;20198;-36
2021/05/16 11:01:34;;;;;;;9.60;5.10;;;12.60;99.90;;;;;;5145059;27;20452;-37
2021/05/16 11:04:09;;;;;;;6.90;5.40;;;12.70;99.90;;;;;;5141566;27;20514;-34
2021/05/16 11:06:59;;;;;;;8.53;5.20;;;12.70;99.90;;;;;;5144187;27;20491;-37
2021/05/16 11:09:36;;;;;;;7.70;4.30;;;12.60;99.90;;;;;;5144792;27;20441;-35
2021/05/16 11:12:07;;;;;;;8.70;4.60;;;12.60;99.90;;;;;;5134437;27;20442;-35
2021/05/16 11:14:39;;;;;;;8.30;5.20;;;12.60;99.90;;;;;;5143214;27;20509;-36
2021/05/16 11:17:16;;;;;;;8.20;4.90;;;12.50;99.90;;;;;;5145332;27;20449;-38
2021/05/16 11:19:48;;;;;;;8.23;5.17;;;12.50;99.90;;;;;;5141360;27;20754;-37
2021/05/16 11:22:20;;;;;;;8.30;4.73;;;12.40;99.90;;;;;;5144697;27;20948;-37
2021/05/16 11:24:51;;;;;;;6.33;4.60;;;12.50;99.90;;;;;;5144360;27;20437;-38
2021/05/16 11:27:25;;;;;;;6.97;4.90;;;12.40;99.90;;;;;;5141592;27;20484;-36
2021/05/16 11:29:58;;;;;;;5.33;4.83;;;12.40;99.90;;;;;;5141239;27;20460;-36
2021/05/16 11:32:31;;;;;;;6.07;5.00;;;12.30;99.90;;;;;;5143371;27;20456;-32
2021/05/16 11:35:08;;;;;;;6.35;5.20;;;12.20;99.90;;;;;;5144344;27;20511;-36
2021/05/16 11:37:40;;;;;;;7.68;4.88;;;12.10;99.90;;;;;;5137089;27;20183;-33
2021/05/16 11:40:19;;;;;;;8.88;4.60;;;12.10;99.90;;;;;;5143862;27;20568;-38
2021/05/16 11:42:56;;;;;;;5.10;4.55;;;12.20;99.90;;;;;;5143950;27;20225;-35
2021/05/16 11:45:30;;;;;;;9.00;4.75;;;12.20;99.90;;;;;;5143440;27;20235;-35
2021/05/16 11:48:01;;;;;;;6.68;5.30;;;12.10;99.90;;;;;;5141356;27;20202;-33
2021/05/16 11:50:46;;;;;;;9.10;5.22;;;12.00;99.90;;;;;;5141290;27;20200;-36
2021/05/16 11:53:23;;;;;;;5.77;5.10;;;12.10;99.90;;;;;;5143120;27;20212;-38
2021/05/16 11:55:53;;;;;;;6.43;5.27;;;12.10;99.90;;;;;;5143449;27;20448;-39
2021/05/16 11:58:25;;;;;;;8.13;5.13;;;12.10;99.90;;;;;;5140275;27;20449;-35
2021/05/16 12:00:56;;;;;;;6.07;5.23;;;12.10;99.90;;;;;;5142145;27;20203;-36
2021/05/16 12:03:28;;;;;;;6.67;5.37;;;12.10;99.90;;;;;;5140053;27;20445;-36
2021/05/16 12:06:07;;;;;;;7.60;5.57;;;12.20;99.90;;;;;;5140606;27;20503;-36
2021/05/16 12:08:37;;;;;;;5.33;4.83;;;12.20;99.90;;;;;;5143938;27;20236;-38
2021/05/16 12:11:14;;;;;;;7.10;6.18;;;12.10;99.90;;;;;;5137913;27;20490;-37
2021/05/16 12:13:45;;;;;;;5.40;4.90;;;12.10;99.90;;;;;;5142333;27;20203;-34
2021/05/16 12:16:23;;;;;;;9.48;5.35;;;12.10;99.90;;;;;;5143965;27;20453;-38
2021/05/16 12:18:54;;;;;;;8.15;5.70;;;12.10;99.90;;;;;;5142254;27;20202;-39
2021/05/16 12:21:26;;;;;;;6.20;5.20;;;12.00;99.90;;;;;;5128647;27;20236;-39
2021/05/16 12:23:58;;;;;;;5.32;4.82;;;12.00;99.90;;;;;;5143163;27;20540;-36
2021/05/16 12:26:32;;;;;;;7.13;5.50;;;12.00;99.90;;;;;;5137739;27;20268;-37
2021/05/16 12:29:03;;;;;;;9.48;4.97;;;12.00;99.90;;;;;;5131175;27;20449;-36
2021/05/16 12:31:34;;;;;;;6.63;5.10;;;11.90;99.90;;;;;;5139943;27;20203;-38
2021/05/16 12:34:06;;;;;;;7.28;5.00;;;11.90;99.90;;;;;;5142432;27;20519;-37
2021/05/16 12:36:51;;;;;;;7.73;5.60;;;11.80;99.90;;;;;;5144112;27;20206;-38
2021/05/16 12:39:41;;;;;;;7.63;5.25;;;11.80;99.90;;;;;;5141472;27;20476;-36
2021/05/16 12:42:32;;;;;;;8.30;6.40;;;11.80;99.90;;;;;;5137506;27;20272;-38
2021/05/16 12:45:24;;;;;;;6.93;4.77;;;11.80;99.90;;;;;;5138933;27;20473;-38
2021/05/16 12:47:58;;;;;;;9.65;6.07;;;11.80;99.90;;;;;;5139155;27;20595;-35
2021/05/16 12:50:34;;;;;;;8.10;6.60;;;11.80;99.90;;;;;;5141054;27;20186;-39
2021/05/16 12:53:25;;;;;;;7.68;6.15;;;11.80;99.90;;;;;;5139490;27;20265;-38
2021/05/16 12:55:56;;;;;;;9.43;6.53;;;11.80;99.90;;;;;;5137276;28;20203;-37
2021/05/16 12:58:34;;;;;;;8.10;5.72;;;11.80;99.90;;;;;;5140078;28;20741;-35
2021/05/16 13:01:04;;;;;;;7.22;6.53;;;11.80;99.90;;;;;;5140866;28;20630;-38
2021/05/16 13:03:36;;;;;;;11.88;5.93;;;11.80;99.90;;;;;;5136737;28;20204;-38
2021/05/16 13:06:16;;;;;;;6.50;5.85;;;11.80;99.90;;;;;;5143759;28;20671;-38
2021/05/16 13:08:52;;;;;;;12.95;6.68;;;11.80;99.90;;;;;;5146071;27;20551;-38